Chesterfield, Connecticut
Current Conditions -  °F | °C
As of 8:56 AM on Tuesday 21 Oct 2014 (Local Time) from KGON Reporting Station
Scattered Clouds Scattered Clouds  
Wind Chill: 53°   Ceiling: Unl
Heat Index: 53°   Visibility: 10mi
Dew Point: 51°   Wind: 3mph
Humidity: 93%   Direction: 340°NNW
Pressure: 29.93"   Gusts: NA
Location:  41.4669°N, 72.1896°W
Report Text: KGON 211256Z 34003KT 10SM SCT120 12/11 A2993 RMK AO2 SLP136 T01170106
Loading
Personal Weather Stations






























Interactive Weather Map
Tropical Storm Tracking
New forecast layout! Learn more

10-Day Weather Forecast

Advertisements
Track Severe Weather on mobile